Elizabeth, New Jersey
Current Conditions -  °F | °C
As of 6:51 PM on Friday 28 Nov 2014 (Local Time) from KEWR Reporting Station
Few Clouds Few Clouds  
Wind Chill: 24°   Ceiling: Unl
Heat Index: 30°   Visibility: 10mi
Dew Point: 12°   Wind: 6mph
Humidity: 47%   Direction: NA
Pressure: 30.26"   Gusts: NA
Location:  40.66°N, 74.21°W
Report Text: KEWR 282351Z VRB05KT 10SM FEW250 M01/M11 A3026 RMK AO2 SLP246 T10111111 10039 21011 51019
Loading
Personal Weather Stations






























Interactive Weather Map New forecast layout! Learn more

10-Day Weather Forecast

Advertisements
Track Severe Weather on mobile